createdAt,value
2023-05-16T00:02:48.761Z,5.80
2023-05-16T00:07:06.698Z,5.81
2023-05-16T00:11:24.638Z,5.80
2023-05-16T00:15:44.313Z,5.77
2023-05-16T00:20:11.255Z,5.64
2023-05-16T00:24:28.879Z,5.61
2023-05-16T00:28:46.405Z,5.67
2023-05-16T00:33:04.386Z,5.63
2023-05-16T00:37:21.877Z,5.61
2023-05-16T00:41:40.226Z,5.69
2023-05-16T00:45:58.267Z,5.60
2023-05-16T00:50:16.461Z,5.50
2023-05-16T00:54:34.164Z,5.46
2023-05-16T00:58:52.265Z,5.47
2023-05-16T01:03:09.932Z,5.43
2023-05-16T01:07:27.861Z,5.42
2023-05-16T01:12:21.709Z,5.34
2023-05-16T01:16:54.999Z,5.27
2023-05-16T01:21:20.020Z,5.16
2023-05-16T01:25:54.285Z,5.11
2023-05-16T01:30:16.616Z,5.08
2023-05-16T01:34:34.327Z,5.15
2023-05-16T01:39:08.247Z,5.23
2023-05-16T01:43:37.358Z,5.12
2023-05-16T01:48:14.028Z,5.09
2023-05-16T01:53:01.197Z,5.15
2023-05-16T01:57:20.181Z,5.13
2023-05-16T02:01:37.909Z,5.12
2023-05-16T02:05:55.540Z,4.99
2023-05-16T02:10:14.403Z,4.98
2023-05-16T02:14:31.902Z,4.96
2023-05-16T02:18:50.187Z,4.96
2023-05-16T02:23:07.879Z,4.87
2023-05-16T02:27:26.747Z,4.83
2023-05-16T02:31:44.233Z,4.80
2023-05-16T02:36:01.955Z,5.02
2023-05-16T02:40:19.528Z,5.15
2023-05-16T02:44:37.409Z,5.06
2023-05-16T02:48:55.301Z,4.99
2023-05-16T02:53:13.168Z,4.95
2023-05-16T02:57:30.741Z,4.96
2023-05-16T03:01:48.407Z,4.94
2023-05-16T03:06:06.429Z,4.96
2023-05-16T03:10:24.046Z,4.91
2023-05-16T03:14:42.795Z,5.08
2023-05-16T03:19:00.455Z,5.23
2023-05-16T03:23:17.648Z,5.23
2023-05-16T03:27:35.192Z,5.34
2023-05-16T03:31:53.325Z,5.51
2023-05-16T03:36:11.150Z,5.69
2023-05-16T03:40:28.921Z,5.80
2023-05-16T03:44:46.681Z,5.84
2023-05-16T03:49:04.796Z,6.05
2023-05-16T03:53:22.204Z,6.20
2023-05-16T03:57:39.885Z,6.37
2023-05-16T04:01:57.556Z,6.58
2023-05-16T04:06:15.260Z,6.84
2023-05-16T04:10:33.019Z,7.06
2023-05-16T04:14:50.762Z,7.34
2023-05-16T04:19:08.322Z,7.58
2023-05-16T04:23:26.045Z,7.91
2023-05-16T04:27:43.549Z,8.22
2023-05-16T04:32:02.404Z,8.50
2023-05-16T04:36:20.373Z,8.87
2023-05-16T04:40:38.085Z,9.30
2023-05-16T04:44:56.491Z,9.62
2023-05-16T04:49:14.857Z,9.89
2023-05-16T04:53:32.718Z,10.15
2023-05-16T04:57:50.377Z,10.34
2023-05-16T05:02:08.232Z,10.59
2023-05-16T05:06:26.272Z,10.75
2023-05-16T05:10:44.171Z,10.94
2023-05-16T05:15:04.043Z,11.03
2023-05-16T05:19:21.694Z,11.26
2023-05-16T05:23:39.837Z,11.43
2023-05-16T05:27:56.888Z,11.70
2023-05-16T05:32:14.922Z,11.98
2023-05-16T05:36:32.559Z,12.18
2023-05-16T05:40:50.235Z,12.42
2023-05-16T05:45:08.568Z,12.70
2023-05-16T05:49:27.825Z,13.07
2023-05-16T05:53:45.557Z,13.16
2023-05-16T05:58:04.970Z,13.30
2023-05-16T06:02:24.585Z,13.53
2023-05-16T06:06:42.484Z,13.81
2023-05-16T06:11:00.924Z,13.94
2023-05-16T06:15:18.684Z,14.11
2023-05-16T06:19:36.333Z,14.33
2023-05-16T06:23:53.975Z,14.50
2023-05-16T06:28:11.613Z,14.76
2023-05-16T06:32:29.796Z,15.01
2023-05-16T06:36:47.325Z,15.11
2023-05-16T06:41:04.958Z,15.25
2023-05-16T06:45:22.673Z,15.52
2023-05-16T06:49:40.459Z,15.49
2023-05-16T06:53:58.175Z,15.65
2023-05-16T06:58:15.981Z,15.53
2023-05-16T07:02:33.548Z,15.52
2023-05-16T07:06:51.592Z,15.88
2023-05-16T07:11:08.685Z,16.20
2023-05-16T07:15:27.112Z,16.39
2023-05-16T07:19:45.111Z,16.87
2023-05-16T07:24:02.806Z,17.55
2023-05-16T07:28:20.312Z,17.93
2023-05-16T07:32:38.789Z,17.89
2023-05-16T07:36:56.768Z,18.20
2023-05-16T07:41:14.518Z,18.59
2023-05-16T07:45:32.190Z,19.32
2023-05-16T07:49:49.997Z,19.34
2023-05-16T07:54:07.633Z,19.34
2023-05-16T07:58:25.449Z,19.30
2023-05-16T08:02:43.482Z,19.65
2023-05-16T08:07:01.443Z,19.82
2023-05-16T08:11:22.643Z,19.44
2023-05-16T08:15:40.494Z,20.32
2023-05-16T08:19:59.495Z,20.17
2023-05-16T08:24:18.312Z,19.12
2023-05-16T08:28:36.400Z,18.69
2023-05-16T08:32:54.063Z,19.15
2023-05-16T08:37:11.642Z,19.41
2023-05-16T08:41:30.400Z,20.16
2023-05-16T08:45:48.121Z,20.44
2023-05-16T08:50:12.126Z,21.15
2023-05-16T08:54:30.293Z,22.00
2023-05-16T08:58:49.499Z,21.88
2023-05-16T09:03:07.323Z,22.30
2023-05-16T09:07:25.314Z,22.16
2023-05-16T09:11:42.748Z,22.21
2023-05-16T09:16:15.468Z,22.21
2023-05-16T09:20:33.064Z,21.92
2023-05-16T09:24:51.324Z,22.78
2023-05-16T09:29:13.163Z,24.10
2023-05-16T09:33:31.172Z,23.51
2023-05-16T09:37:49.763Z,24.57
2023-05-16T09:42:12.943Z,25.92
2023-05-16T09:46:31.708Z,24.64
2023-05-16T09:50:55.365Z,25.84
2023-05-16T09:55:13.306Z,27.03
2023-05-16T09:59:31.705Z,25.84
2023-05-16T10:03:49.657Z,25.25
2023-05-16T10:08:08.116Z,25.49
2023-05-16T10:12:34.106Z,24.88
2023-05-16T10:16:53.095Z,25.69
2023-05-16T10:21:16.641Z,28.15
2023-05-16T10:25:45.446Z,29.69
2023-05-16T10:30:06.222Z,29.56
2023-05-16T10:34:24.212Z,28.76
2023-05-16T10:38:42.910Z,29.35
2023-05-16T10:43:03.566Z,27.59
2023-05-16T10:47:21.385Z,27.29
2023-05-16T10:51:39.404Z,26.64
2023-05-16T10:56:00.115Z,26.43
2023-05-16T11:00:23.651Z,26.88
2023-05-16T11:04:53.512Z,26.80
2023-05-16T11:09:11.088Z,27.87
2023-05-16T11:13:29.149Z,27.97
2023-05-16T11:17:47.384Z,28.04
2023-05-16T11:22:21.150Z,28.15
2023-05-16T11:26:39.547Z,28.00
2023-05-16T11:31:00.269Z,28.53
2023-05-16T11:35:19.153Z,28.71
2023-05-16T11:39:36.783Z,29.21
2023-05-16T11:43:54.570Z,29.10
2023-05-16T11:48:18.963Z,28.45
2023-05-16T11:52:49.346Z,27.65
2023-05-16T11:57:07.245Z,27.83
2023-05-16T12:01:24.761Z,27.71
2023-05-16T12:05:57.372Z,27.70
2023-05-16T12:10:17.341Z,29.41
2023-05-16T12:14:35.251Z,29.42
2023-05-16T12:18:53.496Z,27.86
2023-05-16T12:23:13.028Z,27.03
2023-05-16T12:27:30.834Z,25.49
2023-05-16T12:31:48.814Z,25.73
2023-05-16T12:36:14.765Z,24.72
2023-05-16T12:40:32.609Z,24.71
2023-05-16T12:44:50.210Z,24.68
2023-05-16T12:49:08.597Z,24.61
2023-05-16T12:53:26.967Z,24.14
2023-05-16T12:57:46.599Z,24.02
2023-05-16T13:02:04.810Z,23.78
2023-05-16T13:06:22.645Z,24.30
2023-05-16T13:10:40.829Z,24.33
2023-05-16T13:14:58.633Z,25.11
2023-05-16T13:19:16.390Z,24.72
2023-05-16T13:23:34.176Z,23.54
2023-05-16T13:27:51.796Z,22.81
2023-05-16T13:32:11.387Z,22.05
2023-05-16T13:36:35.397Z,21.54
2023-05-16T13:41:00.685Z,21.32
2023-05-16T13:45:18.760Z,21.03
2023-05-16T13:49:36.725Z,20.89
2023-05-16T13:53:54.537Z,21.52
2023-05-16T13:58:12.173Z,21.99
2023-05-16T14:02:29.893Z,22.07
2023-05-16T14:06:47.544Z,22.57
2023-05-16T14:11:05.352Z,22.30
2023-05-16T14:15:22.882Z,21.47
2023-05-16T14:19:40.585Z,20.52
2023-05-16T14:23:58.194Z,19.80
2023-05-16T14:28:15.907Z,19.35
2023-05-16T14:32:33.628Z,19.24
2023-05-16T14:36:51.493Z,18.48
2023-05-16T14:41:09.093Z,18.32
2023-05-16T14:45:27.215Z,18.14
2023-05-16T14:49:45.123Z,17.94
2023-05-16T14:54:03.095Z,17.79
2023-05-16T14:58:20.690Z,17.65
2023-05-16T15:02:38.338Z,17.46
2023-05-16T15:06:56.165Z,17.42
2023-05-16T15:11:13.847Z,17.43
2023-05-16T15:15:32.322Z,17.49
2023-05-16T15:19:50.245Z,17.53
2023-05-16T15:24:08.546Z,17.19
2023-05-16T15:28:26.379Z,16.98
2023-05-16T15:32:44.599Z,16.71
2023-05-16T15:37:02.566Z,16.41
2023-05-16T15:41:43.279Z,16.28
2023-05-16T15:45:58.845Z,16.01
2023-05-16T15:50:16.618Z,15.80
2023-05-16T15:54:37.862Z,15.66
2023-05-16T15:58:56.616Z,15.47
2023-05-16T16:03:14.455Z,15.55
2023-05-16T16:07:32.041Z,15.53
2023-05-16T16:11:50.142Z,15.38
2023-05-16T16:16:08.136Z,15.43
2023-05-16T16:20:26.672Z,15.38
2023-05-16T16:24:44.287Z,15.14
2023-05-16T16:29:05.070Z,14.97
2023-05-16T16:33:22.769Z,15.00
2023-05-16T16:37:41.684Z,14.98
2023-05-16T16:42:01.626Z,14.80
2023-05-16T16:46:19.487Z,14.71
2023-05-16T16:50:37.308Z,14.60
2023-05-16T16:54:54.852Z,14.50
2023-05-16T16:59:12.535Z,14.42
2023-05-16T17:03:30.821Z,14.32
2023-05-16T17:07:48.721Z,14.26
2023-05-16T17:12:08.773Z,14.24
2023-05-16T17:16:28.268Z,14.16
2023-05-16T17:20:45.816Z,14.15
2023-05-16T17:25:04.497Z,14.11
2023-05-16T17:29:22.056Z,13.95
2023-05-16T17:33:39.757Z,13.80
2023-05-16T17:37:57.433Z,13.67
2023-05-16T17:42:15.298Z,13.66
2023-05-16T17:46:33.859Z,13.63
2023-05-16T17:50:51.737Z,13.57
2023-05-16T17:55:10.102Z,13.51
2023-05-16T17:59:27.776Z,13.42
2023-05-16T18:03:45.404Z,13.35
2023-05-16T18:08:05.080Z,13.29
2023-05-16T18:12:23.749Z,13.30
2023-05-16T18:16:41.472Z,13.29
2023-05-16T18:20:59.008Z,13.22
2023-05-16T18:25:16.930Z,13.19
2023-05-16T18:29:34.842Z,13.18
2023-05-16T18:33:52.441Z,13.09
2023-05-16T18:38:17.425Z,13.09
2023-05-16T18:42:42.268Z,13.07
2023-05-16T18:46:59.959Z,13.08
2023-05-16T18:51:17.824Z,13.07
2023-05-16T18:55:35.599Z,13.09
2023-05-16T18:59:53.729Z,13.14
2023-05-16T19:04:11.467Z,13.08
2023-05-16T19:08:40.314Z,13.04
2023-05-16T19:13:08.842Z,13.01
2023-05-16T19:17:27.539Z,13.00
2023-05-16T19:21:45.740Z,12.97
2023-05-16T19:26:03.267Z,12.95
2023-05-16T19:30:20.521Z,12.91
2023-05-16T19:34:38.120Z,12.92
2023-05-16T19:38:55.965Z,12.85
2023-05-16T19:43:13.593Z,12.71
2023-05-16T19:47:31.890Z,12.70
2023-05-16T19:51:49.637Z,12.63
2023-05-16T19:56:07.533Z,12.59
2023-05-16T20:00:25.403Z,12.52
2023-05-16T20:04:43.482Z,12.50
2023-05-16T20:09:01.115Z,12.49
2023-05-16T20:13:20.736Z,12.35
2023-05-16T20:17:39.994Z,12.36
2023-05-16T20:21:57.694Z,12.40
2023-05-16T20:26:15.606Z,12.40
2023-05-16T20:30:33.203Z,12.42
2023-05-16T20:34:50.957Z,12.42
2023-05-16T20:39:09.371Z,12.43
2023-05-16T20:43:27.021Z,12.47
2023-05-16T20:47:45.206Z,12.36
2023-05-16T20:52:04.401Z,12.24
2023-05-16T20:56:22.614Z,12.15
2023-05-16T21:00:40.510Z,12.11
2023-05-16T21:05:02.131Z,12.08
2023-05-16T21:09:23.858Z,12.04
2023-05-16T21:13:41.656Z,12.01
2023-05-16T21:17:59.312Z,11.95
2023-05-16T21:22:18.186Z,11.92
2023-05-16T21:26:35.764Z,11.91
2023-05-16T21:30:54.652Z,11.91
2023-05-16T21:35:12.294Z,11.88
2023-05-16T21:39:30.011Z,11.87
2023-05-16T21:43:47.784Z,11.89
2023-05-16T21:48:08.071Z,11.88
2023-05-16T21:52:26.171Z,11.85
2023-05-16T21:56:43.811Z,11.91
2023-05-16T22:01:01.432Z,11.87
2023-05-16T22:05:19.913Z,11.85
2023-05-16T22:09:37.030Z,11.84
2023-05-16T22:13:55.012Z,11.84
2023-05-16T22:18:12.650Z,11.84
2023-05-16T22:22:30.777Z,11.82
2023-05-16T22:26:48.416Z,11.79
2023-05-16T22:31:06.072Z,11.85
2023-05-16T22:35:25.612Z,11.84
2023-05-16T22:39:43.325Z,11.77
2023-05-16T22:44:01.075Z,11.81
2023-05-16T22:48:18.730Z,11.75
2023-05-16T22:52:41.391Z,11.70
2023-05-16T22:56:58.965Z,11.67
2023-05-16T23:01:16.617Z,11.67
2023-05-16T23:05:34.196Z,11.68
2023-05-16T23:09:52.001Z,11.70
2023-05-16T23:14:09.712Z,11.70
2023-05-16T23:18:27.601Z,11.71
2023-05-16T23:22:45.195Z,11.75
2023-05-16T23:27:02.886Z,11.77
2023-05-16T23:31:20.504Z,11.79
2023-05-16T23:35:38.034Z,11.78
2023-05-16T23:39:55.755Z,11.87
2023-05-16T23:44:13.266Z,11.87
2023-05-16T23:48:31.027Z,11.88
2023-05-16T23:52:48.873Z,11.88
2023-05-16T23:57:06.397Z,11.88
